sensor_id;sensor_type;location;lat;lon;timestamp;pressure;altitude;pressure_sealevel;temperature;humidity
1736;BME280;865;53.672;10.250;2023-04-03T00:00:57;102964.91;;;-1.03;100.00
1736;BME280;865;53.672;10.250;2023-04-03T00:03:24;102966.84;;;-0.99;100.00
1736;BME280;865;53.672;10.250;2023-04-03T00:05:50;102975.72;;;-0.94;100.00
1736;BME280;865;53.672;10.250;2023-04-03T00:08:17;102970.81;;;-0.90;100.00
1736;BME280;865;53.672;10.250;2023-04-03T00:10:43;102967.06;;;-0.96;100.00
1736;BME280;865;53.672;10.250;2023-04-03T00:13:10;102972.59;;;-1.03;100.00
1736;BME280;865;53.672;10.250;2023-04-03T00:15:37;102969.91;;;-1.04;100.00
1736;BME280;865;53.672;10.250;2023-04-03T00:18:04;102975.75;;;-1.07;100.00
1736;BME280;865;53.672;10.250;2023-04-03T00:20:31;102971.59;;;-1.05;100.00
1736;BME280;865;53.672;10.250;2023-04-03T00:22:58;102972.00;;;-1.12;100.00
1736;BME280;865;53.672;10.250;2023-04-03T00:25:24;102968.97;;;-1.06;100.00
1736;BME280;865;53.672;10.250;2023-04-03T00:27:51;102973.88;;;-1.09;100.00
1736;BME280;865;53.672;10.250;2023-04-03T00:30:19;102966.09;;;-1.11;100.00
1736;BME280;865;53.672;10.250;2023-04-03T00:32:48;102980.25;;;-1.16;100.00
1736;BME280;865;53.672;10.250;2023-04-03T00:35:14;102978.50;;;-1.17;100.00
1736;BME280;865;53.672;10.250;2023-04-03T00:37:44;102976.13;;;-1.14;100.00
1736;BME280;865;53.672;10.250;2023-04-03T00:40:13;102983.63;;;-1.17;100.00
1736;BME280;865;53.672;10.250;2023-04-03T00:42:41;102980.56;;;-1.11;100.00
1736;BME280;865;53.672;10.250;2023-04-03T00:47:37;102992.78;;;-1.21;100.00
1736;BME280;865;53.672;10.250;2023-04-03T00:50:05;102987.56;;;-1.22;100.00
1736;BME280;865;53.672;10.250;2023-04-03T00:52:32;102998.59;;;-1.23;100.00
1736;BME280;865;53.672;10.250;2023-04-03T00:55:02;102992.66;;;-1.22;100.00
1736;BME280;865;53.672;10.250;2023-04-03T00:57:30;102995.44;;;-1.32;100.00
1736;BME280;865;53.672;10.250;2023-04-03T01:00:03;102990.13;;;-1.35;100.00
1736;BME280;865;53.672;10.250;2023-04-03T01:02:30;102992.00;;;-1.33;100.00
1736;BME280;865;53.672;10.250;2023-04-03T01:04:57;102987.88;;;-1.31;100.00
1736;BME280;865;53.672;10.250;2023-04-03T01:07:29;102988.06;;;-1.28;100.00
1736;BME280;865;53.672;10.250;2023-04-03T01:10:00;102987.16;;;-1.28;100.00
1736;BME280;865;53.672;10.250;2023-04-03T01:12:35;102994.75;;;-1.30;100.00
1736;BME280;865;53.672;10.250;2023-04-03T01:15:22;102994.75;;;-1.17;100.00
1736;BME280;865;53.672;10.250;2023-04-03T01:17:52;102986.88;;;-1.20;100.00
1736;BME280;865;53.672;10.250;2023-04-03T01:28:13;102998.19;;;-1.43;100.00
1736;BME280;865;53.672;10.250;2023-04-03T01:30:53;102992.56;;;-1.50;100.00
1736;BME280;865;53.672;10.250;2023-04-03T01:33:22;102994.25;;;-1.51;100.00
1736;BME280;865;53.672;10.250;2023-04-03T01:35:49;102994.63;;;-1.45;100.00
1736;BME280;865;53.672;10.250;2023-04-03T01:38:15;102994.91;;;-1.40;100.00
1736;BME280;865;53.672;10.250;2023-04-03T01:40:42;103002.19;;;-1.46;100.00
1736;BME280;865;53.672;10.250;2023-04-03T01:43:08;102994.44;;;-1.48;100.00
1736;BME280;865;53.672;10.250;2023-04-03T01:45:35;102998.88;;;-1.45;100.00
1736;BME280;865;53.672;10.250;2023-04-03T01:48:02;102992.34;;;-1.53;100.00
1736;BME280;865;53.672;10.250;2023-04-03T01:50:29;102991.28;;;-1.57;100.00
1736;BME280;865;53.672;10.250;2023-04-03T01:52:55;102993.44;;;-1.63;100.00
1736;BME280;865;53.672;10.250;2023-04-03T01:55:21;103001.59;;;-1.69;100.00
1736;BME280;865;53.672;10.250;2023-04-03T01:57:48;102994.25;;;-1.76;100.00
1736;BME280;865;53.672;10.250;2023-04-03T02:00:14;103010.81;;;-1.71;100.00
1736;BME280;865;53.672;10.250;2023-04-03T02:02:41;103002.25;;;-1.71;100.00
1736;BME280;865;53.672;10.250;2023-04-03T02:05:07;103001.88;;;-1.64;100.00
1736;BME280;865;53.672;10.250;2023-04-03T02:07:34;103012.16;;;-1.76;100.00
1736;BME280;865;53.672;10.250;2023-04-03T02:10:00;103010.31;;;-1.78;100.00
1736;BME280;865;53.672;10.250;2023-04-03T02:12:27;103012.16;;;-1.89;100.00
1736;BME280;865;53.672;10.250;2023-04-03T02:14:53;103011.06;;;-1.93;100.00
1736;BME280;865;53.672;10.250;2023-04-03T02:17:19;103008.72;;;-1.90;100.00
1736;BME280;865;53.672;10.250;2023-04-03T02:19:46;103011.34;;;-1.88;100.00
1736;BME280;865;53.672;10.250;2023-04-03T02:22:12;103008.38;;;-1.94;100.00
1736;BME280;865;53.672;10.250;2023-04-03T02:24:38;103009.72;;;-1.99;100.00
1736;BME280;865;53.672;10.250;2023-04-03T02:27:06;103005.94;;;-1.93;100.00
1736;BME280;865;53.672;10.250;2023-04-03T02:29:32;103006.19;;;-1.76;100.00
1736;BME280;865;53.672;10.250;2023-04-03T02:31:59;103005.22;;;-1.78;100.00
1736;BME280;865;53.672;10.250;2023-04-03T02:34:25;103017.00;;;-1.80;100.00
1736;BME280;865;53.672;10.250;2023-04-03T02:36:52;103007.31;;;-1.85;100.00
1736;BME280;865;53.672;10.250;2023-04-03T02:39:18;103014.31;;;-1.82;100.00
1736;BME280;865;53.672;10.250;2023-04-03T02:41:44;103014.91;;;-1.86;100.00
1736;BME280;865;53.672;10.250;2023-04-03T02:44:11;103016.00;;;-1.83;100.00
1736;BME280;865;53.672;10.250;2023-04-03T02:46:38;103011.69;;;-1.84;100.00
1736;BME280;865;53.672;10.250;2023-04-03T02:49:05;103010.84;;;-1.96;100.00
1736;BME280;865;53.672;10.250;2023-04-03T02:51:32;103012.94;;;-1.90;100.00
1736;BME280;865;53.672;10.250;2023-04-03T02:53:58;103014.50;;;-1.92;100.00
1736;BME280;865;53.672;10.250;2023-04-03T02:56:25;103024.47;;;-1.84;100.00
1736;BME280;865;53.672;10.250;2023-04-03T02:58:52;103012.16;;;-1.89;100.00
1736;BME280;865;53.672;10.250;2023-04-03T03:01:19;103016.72;;;-1.97;100.00
1736;BME280;865;53.672;10.250;2023-04-03T03:03:46;103016.72;;;-1.97;100.00
1736;BME280;865;53.672;10.250;2023-04-03T03:06:15;103014.28;;;-1.95;100.00
1736;BME280;865;53.672;10.250;2023-04-03T03:08:42;103006.91;;;-1.91;100.00
1736;BME280;865;53.672;10.250;2023-04-03T03:11:09;103013.91;;;-1.88;100.00
1736;BME280;865;53.672;10.250;2023-04-03T03:13:36;103009.84;;;-1.98;100.00
1736;BME280;865;53.672;10.250;2023-04-03T03:16:03;103011.06;;;-1.93;100.00
1736;BME280;865;53.672;10.250;2023-04-03T03:18:29;103015.59;;;-1.89;100.00
1736;BME280;865;53.672;10.250;2023-04-03T03:20:58;103008.91;;;-1.87;100.00
1736;BME280;865;53.672;10.250;2023-04-03T03:23:26;103008.72;;;-1.90;100.00
1736;BME280;865;53.672;10.250;2023-04-03T03:25:58;103011.47;;;-1.87;100.00
1736;BME280;865;53.672;10.250;2023-04-03T03:28:25;103010.53;;;-2.00;100.00
1736;BME280;865;53.672;10.250;2023-04-03T03:30:51;103011.19;;;-2.03;100.00
1736;BME280;865;53.672;10.250;2023-04-03T03:33:18;103008.84;;;-2.00;100.00
1736;BME280;865;53.672;10.250;2023-04-03T03:35:44;103004.91;;;-2.08;100.00
1736;BME280;865;53.672;10.250;2023-04-03T03:38:11;103006.66;;;-2.07;100.00
1736;BME280;865;53.672;10.250;2023-04-03T03:40:37;103002.66;;;-2.03;100.00
1736;BME280;865;53.672;10.250;2023-04-03T03:43:04;103005.66;;;-2.09;100.00
1736;BME280;865;53.672;10.250;2023-04-03T03:45:30;103009.03;;;-2.10;100.00
1736;BME280;865;53.672;10.250;2023-04-03T03:47:57;103003.22;;;-2.08;100.00
1736;BME280;865;53.672;10.250;2023-04-03T03:50:23;103015.44;;;-2.03;100.00
1736;BME280;865;53.672;10.250;2023-04-03T03:52:50;103016.31;;;-2.03;100.00
1736;BME280;865;53.672;10.250;2023-04-03T03:55:17;103014.13;;;-2.10;100.00
1736;BME280;865;53.672;10.250;2023-04-03T03:57:43;103011.09;;;-2.04;100.00
1736;BME280;865;53.672;10.250;2023-04-03T04:00:10;103007.88;;;-2.02;100.00
1736;BME280;865;53.672;10.250;2023-04-03T04:02:36;103015.63;;;-2.00;100.00
1736;BME280;865;53.672;10.250;2023-04-03T04:05:03;103013.63;;;-1.93;100.00
1736;BME280;865;53.672;10.250;2023-04-03T04:07:30;103013.19;;;-1.99;100.00
1736;BME280;865;53.672;10.250;2023-04-03T04:09:56;103014.75;;;-2.01;100.00
1736;BME280;865;53.672;10.250;2023-04-03T04:12:22;103012.38;;;-2.11;100.00
1736;BME280;865;53.672;10.250;2023-04-03T04:14:49;103018.38;;;-2.11;100.00
1736;BME280;865;53.672;10.250;2023-04-03T04:17:15;103015.25;;;-2.18;100.00
1736;BME280;865;53.672;10.250;2023-04-03T04:19:42;103012.56;;;-2.08;100.00
1736;BME280;865;53.672;10.250;2023-04-03T04:22:08;103013.72;;;-2.16;100.00
1736;BME280;865;53.672;10.250;2023-04-03T04:24:34;103015.00;;;-2.10;100.00
1736;BME280;865;53.672;10.250;2023-04-03T04:27:03;103013.34;;;-2.09;100.00
1736;BME280;865;53.672;10.250;2023-04-03T04:29:30;103020.47;;;-2.05;100.00
1736;BME280;865;53.672;10.250;2023-04-03T04:32:02;103022.34;;;-2.14;100.00
1736;BME280;865;53.672;10.250;2023-04-03T04:34:28;103015.50;;;-2.27;100.00
1736;BME280;865;53.672;10.250;2023-04-03T04:36:56;103021.50;;;-2.26;100.00
1736;BME280;865;53.672;10.250;2023-04-03T04:39:22;103029.75;;;-2.31;100.00
1736;BME280;865;53.672;10.250;2023-04-03T04:41:49;103036.97;;;-2.25;100.00
1736;BME280;865;53.672;10.250;2023-04-03T04:44:15;103036.63;;;-2.30;100.00
1736;BME280;865;53.672;10.250;2023-04-03T04:46:42;103037.09;;;-2.35;100.00
1736;BME280;865;53.672;10.250;2023-04-03T04:49:08;103040.22;;;-2.39;100.00
1736;BME280;865;53.672;10.250;2023-04-03T04:51:34;103048.69;;;-2.40;100.00
1736;BME280;865;53.672;10.250;2023-04-03T04:54:17;103050.81;;;-2.46;100.00
1736;BME280;865;53.672;10.250;2023-04-03T04:56:43;103053.22;;;-2.48;100.00
1736;BME280;865;53.672;10.250;2023-04-03T04:59:10;103055.13;;;-2.57;100.00
1736;BME280;865;53.672;10.250;2023-04-03T05:01:36;103060.47;;;-2.54;100.00
1736;BME280;865;53.672;10.250;2023-04-03T05:04:02;103062.44;;;-2.38;100.00
1736;BME280;865;53.672;10.250;2023-04-03T05:06:29;103058.66;;;-2.32;100.00
1736;BME280;865;53.672;10.250;2023-04-03T05:08:58;103056.66;;;-2.36;100.00
1736;BME280;865;53.672;10.250;2023-04-03T05:11:24;103059.00;;;-2.50;100.00
1736;BME280;865;53.672;10.250;2023-04-03T05:13:51;103063.47;;;-2.48;100.00
1736;BME280;865;53.672;10.250;2023-04-03T05:16:18;103068.03;;;-2.44;100.00
1736;BME280;865;53.672;10.250;2023-04-03T05:18:44;103059.78;;;-2.40;100.00
1736;BME280;865;53.672;10.250;2023-04-03T05:21:11;103064.53;;;-2.33;100.00
1736;BME280;865;53.672;10.250;2023-04-03T05:23:37;103067.31;;;-2.30;100.00
1736;BME280;865;53.672;10.250;2023-04-03T05:26:03;103074.50;;;-2.12;100.00
1736;BME280;865;53.672;10.250;2023-04-03T05:28:30;103071.84;;;-2.14;100.00
1736;BME280;865;53.672;10.250;2023-04-03T05:30:57;103079.69;;;-1.99;100.00
1736;BME280;865;53.672;10.250;2023-04-03T05:33:25;103078.84;;;-2.11;100.00
1736;BME280;865;53.672;10.250;2023-04-03T05:35:53;103075.41;;;-2.23;100.00
1736;BME280;865;53.672;10.250;2023-04-03T05:38:20;103081.09;;;-2.27;100.00
1736;BME280;865;53.672;10.250;2023-04-03T05:40:47;103082.81;;;-2.15;100.00
1736;BME280;865;53.672;10.250;2023-04-03T05:43:13;103094.47;;;-2.07;100.00
1736;BME280;865;53.672;10.250;2023-04-03T05:45:40;103094.81;;;-2.02;100.00
1736;BME280;865;53.672;10.250;2023-04-03T05:48:06;103088.69;;;-2.04;100.00
1736;BME280;865;53.672;10.250;2023-04-03T05:50:32;103092.22;;;-1.90;100.00
1736;BME280;865;53.672;10.250;2023-04-03T05:52:59;103092.72;;;-1.83;100.00
1736;BME280;865;53.672;10.250;2023-04-03T05:55:28;103093.56;;;-1.70;100.00
1736;BME280;865;53.672;10.250;2023-04-03T05:57:54;103096.47;;;-1.66;100.00
1736;BME280;865;53.672;10.250;2023-04-03T06:00:21;103100.91;;;-1.63;100.00
1736;BME280;865;53.672;10.250;2023-04-03T06:02:47;103097.16;;;-1.55;100.00
1736;BME280;865;53.672;10.250;2023-04-03T06:05:14;103093.88;;;-1.41;100.00
1736;BME280;865;53.672;10.250;2023-04-03T06:07:40;103099.50;;;-1.33;100.00
1736;BME280;865;53.672;10.250;2023-04-03T06:10:07;103094.00;;;-1.26;100.00
1736;BME280;865;53.672;10.250;2023-04-03T06:12:34;103097.75;;;-1.21;100.00
1736;BME280;865;53.672;10.250;2023-04-03T06:15:01;103101.63;;;-1.14;100.00
1736;BME280;865;53.672;10.250;2023-04-03T06:17:28;103093.06;;;-1.01;100.00
1736;BME280;865;53.672;10.250;2023-04-03T06:19:55;103096.94;;;-0.95;100.00
1736;BME280;865;53.672;10.250;2023-04-03T06:22:24;103100.78;;;-0.88;100.00
1736;BME280;865;53.672;10.250;2023-04-03T06:24:51;103105.00;;;-0.75;100.00
1736;BME280;865;53.672;10.250;2023-04-03T06:27:18;103107.69;;;-0.47;100.00
1736;BME280;865;53.672;10.250;2023-04-03T06:29:44;103097.63;;;-0.44;100.00
1736;BME280;865;53.672;10.250;2023-04-03T06:32:11;103108.53;;;-0.33;100.00
1736;BME280;865;53.672;10.250;2023-04-03T06:34:37;103107.84;;;-0.17;100.00
1736;BME280;865;53.672;10.250;2023-04-03T06:37:04;103099.84;;;-0.22;100.00
1736;BME280;865;53.672;10.250;2023-04-03T06:39:30;103112.84;;;-0.06;100.00
1736;BME280;865;53.672;10.250;2023-04-03T06:41:57;103110.59;;;0.14;100.00
1736;BME280;865;53.672;10.250;2023-04-03T06:44:23;103115.44;;;0.37;100.00
1736;BME280;865;53.672;10.250;2023-04-03T06:46:57;103105.53;;;0.43;100.00
1736;BME280;865;53.672;10.250;2023-04-03T06:49:23;103117.97;;;0.51;100.00
1736;BME280;865;53.672;10.250;2023-04-03T06:51:50;103109.19;;;0.62;100.00
1736;BME280;865;53.672;10.250;2023-04-03T06:54:16;103106.66;;;0.77;100.00
1736;BME280;865;53.672;10.250;2023-04-03T06:56:42;103110.19;;;0.79;100.00
1736;BME280;865;53.672;10.250;2023-04-03T06:59:09;103112.44;;;0.87;100.00
1736;BME280;865;53.672;10.250;2023-04-03T07:01:36;103109.50;;;0.96;100.00
1736;BME280;865;53.672;10.250;2023-04-03T07:04:02;103102.41;;;1.07;100.00
1736;BME280;865;53.672;10.250;2023-04-03T07:06:29;103101.88;;;1.12;100.00
1736;BME280;865;53.672;10.250;2023-04-03T07:08:57;103105.88;;;1.22;100.00
1736;BME280;865;53.672;10.250;2023-04-03T07:11:23;103110.66;;;1.31;100.00
1736;BME280;865;53.672;10.250;2023-04-03T07:13:50;103111.41;;;1.45;100.00
1736;BME280;865;53.672;10.250;2023-04-03T07:16:16;103111.72;;;1.51;100.00
1736;BME280;865;53.672;10.250;2023-04-03T07:18:43;103111.16;;;1.71;100.00
1736;BME280;865;53.672;10.250;2023-04-03T07:21:10;103120.53;;;1.86;100.00
1736;BME280;865;53.672;10.250;2023-04-03T07:23:36;103117.22;;;1.88;100.00
1736;BME280;865;53.672;10.250;2023-04-03T07:26:03;103118.53;;;1.96;100.00
1736;BME280;865;53.672;10.250;2023-04-03T07:28:30;103114.66;;;2.04;100.00
1736;BME280;865;53.672;10.250;2023-04-03T07:31:03;103116.38;;;2.20;100.00
1736;BME280;865;53.672;10.250;2023-04-03T07:33:30;103113.22;;;2.26;100.00
1736;BME280;865;53.672;10.250;2023-04-03T07:35:57;103108.59;;;2.35;100.00
1736;BME280;865;53.672;10.250;2023-04-03T07:38:24;103099.31;;;2.39;100.00
1736;BME280;865;53.672;10.250;2023-04-03T07:40:51;103099.78;;;2.48;100.00
1736;BME280;865;53.672;10.250;2023-04-03T07:43:19;103104.78;;;2.45;100.00
1736;BME280;865;53.672;10.250;2023-04-03T07:45:47;103108.06;;;2.59;100.00
1736;BME280;865;53.672;10.250;2023-04-03T07:48:17;103100.31;;;2.75;100.00
1736;BME280;865;53.672;10.250;2023-04-03T07:50:44;103097.16;;;2.81;100.00
1736;BME280;865;53.672;10.250;2023-04-03T07:53:11;103082.38;;;2.94;100.00
1736;BME280;865;53.672;10.250;2023-04-03T07:55:37;103093.16;;;3.04;100.00
1736;BME280;865;53.672;10.250;2023-04-03T07:58:14;103098.50;;;3.08;100.00
1736;BME280;865;53.672;10.250;2023-04-03T08:00:41;103095.63;;;3.02;100.00
1736;BME280;865;53.672;10.250;2023-04-03T08:03:09;103095.63;;;3.02;100.00
1736;BME280;865;53.672;10.250;2023-04-03T08:05:42;103095.66;;;3.20;100.00
1736;BME280;865;53.672;10.250;2023-04-03T08:08:11;103094.97;;;3.42;100.00
1736;BME280;865;53.672;10.250;2023-04-03T08:10:38;103093.78;;;3.53;100.00
1736;BME280;865;53.672;10.250;2023-04-03T08:13:06;103085.25;;;3.54;100.00
1736;BME280;865;53.672;10.250;2023-04-03T08:15:33;103097.88;;;3.48;100.00
1736;BME280;865;53.672;10.250;2023-04-03T08:18:00;103091.34;;;3.56;100.00
1736;BME280;865;53.672;10.250;2023-04-03T08:20:27;103090.19;;;3.50;100.00
1736;BME280;865;53.672;10.250;2023-04-03T08:22:54;103089.88;;;3.61;100.00
1736;BME280;865;53.672;10.250;2023-04-03T08:25:21;103094.13;;;3.79;100.00
1736;BME280;865;53.672;10.250;2023-04-03T08:27:47;103090.56;;;3.95;100.00
1736;BME280;865;53.672;10.250;2023-04-03T08:30:14;103083.75;;;4.16;100.00
1736;BME280;865;53.672;10.250;2023-04-03T08:32:40;103086.13;;;4.31;100.00
1736;BME280;865;53.672;10.250;2023-04-03T08:35:10;103090.22;;;4.45;100.00
1736;BME280;865;53.672;10.250;2023-04-03T08:37:43;103085.91;;;4.46;100.00
1736;BME280;865;53.672;10.250;2023-04-03T08:40:14;103082.19;;;4.59;100.00
1736;BME280;865;53.672;10.250;2023-04-03T08:42:57;103083.56;;;4.50;100.00
1736;BME280;865;53.672;10.250;2023-04-03T08:45:45;103073.81;;;4.45;100.00
1736;BME280;865;53.672;10.250;2023-04-03T08:48:27;103085.16;;;4.68;100.00
1736;BME280;865;53.672;10.250;2023-04-03T08:50:59;103088.97;;;4.56;100.00
1736;BME280;865;53.672;10.250;2023-04-03T08:53:32;103079.28;;;4.72;100.00
1736;BME280;865;53.672;10.250;2023-04-03T08:56:03;103082.50;;;4.66;100.00
1736;BME280;865;53.672;10.250;2023-04-03T08:58:45;103086.91;;;4.69;100.00
1736;BME280;865;53.672;10.250;2023-04-03T09:01:20;103082.31;;;4.62;100.00
1736;BME280;865;53.672;10.250;2023-04-03T09:03:49;103082.00;;;4.75;100.00
1736;BME280;865;53.672;10.250;2023-04-03T09:06:20;103079.00;;;4.85;100.00
1736;BME280;865;53.672;10.250;2023-04-03T09:09:08;103087.34;;;4.59;95.38
1736;BME280;865;53.672;10.250;2023-04-03T09:12:12;103089.50;;;4.69;100.00
1736;BME280;865;53.672;10.250;2023-04-03T09:15:04;103079.41;;;4.96;100.00
1736;BME280;865;53.672;10.250;2023-04-03T09:17:55;103077.41;;;4.89;100.00
1736;BME280;865;53.672;10.250;2023-04-03T09:20:26;103078.09;;;5.06;100.00
1736;BME280;865;53.672;10.250;2023-04-03T09:22:56;103086.88;;;5.09;100.00
1736;BME280;865;53.672;10.250;2023-04-03T09:25:33;103076.97;;;4.99;100.00
1736;BME280;865;53.672;10.250;2023-04-03T09:28:01;103074.97;;;4.92;100.00
1736;BME280;865;53.672;10.250;2023-04-03T09:30:29;103070.19;;;5.02;100.00
1736;BME280;865;53.672;10.250;2023-04-03T09:32:56;103072.53;;;4.96;100.00
1736;BME280;865;53.672;10.250;2023-04-03T09:35:25;103074.34;;;5.20;100.00
1736;BME280;865;53.672;10.250;2023-04-03T09:40:38;103071.44;;;5.33;100.00
1736;BME280;865;53.672;10.250;2023-04-03T09:43:25;103071.84;;;5.44;100.00
1736;BME280;865;53.672;10.250;2023-04-03T09:45:53;103070.53;;;5.54;100.00
1736;BME280;865;53.672;10.250;2023-04-03T09:48:25;103068.69;;;5.51;100.00
1736;BME280;865;53.672;10.250;2023-04-03T09:50:55;103067.56;;;5.67;100.00
1736;BME280;865;53.672;10.250;2023-04-03T09:53:41;103057.47;;;5.51;100.00
1736;BME280;865;53.672;10.250;2023-04-03T09:59:08;103062.28;;;5.64;100.00
1736;BME280;865;53.672;10.250;2023-04-03T10:01:41;103059.88;;;5.68;98.19
1736;BME280;865;53.672;10.250;2023-04-03T10:04:14;103051.88;;;6.09;100.00
1736;BME280;865;53.672;10.250;2023-04-03T10:06:49;103057.28;;;6.15;100.00
1736;BME280;865;53.672;10.250;2023-04-03T10:09:26;103061.16;;;6.02;100.00
1736;BME280;865;53.672;10.250;2023-04-03T10:14:28;103049.16;;;5.37;100.00
1736;BME280;865;53.672;10.250;2023-04-03T10:17:03;103049.19;;;5.38;100.00
1736;BME280;865;53.672;10.250;2023-04-03T10:22:54;103041.91;;;5.28;100.00
1736;BME280;865;53.672;10.250;2023-04-03T10:25:43;103038.16;;;5.42;100.00
1736;BME280;865;53.672;10.250;2023-04-03T10:28:32;103047.31;;;5.12;100.00
1736;BME280;865;53.672;10.250;2023-04-03T10:31:12;103042.28;;;5.15;100.00
1736;BME280;865;53.672;10.250;2023-04-03T10:33:50;103044.81;;;5.36;100.00
1736;BME280;865;53.672;10.250;2023-04-03T10:39:14;103035.63;;;6.13;100.00
1736;BME280;865;53.672;10.250;2023-04-03T10:41:56;103025.25;;;6.37;100.00
1736;BME280;865;53.672;10.250;2023-04-03T10:47:40;103020.09;;;6.38;100.00
1736;BME280;865;53.672;10.250;2023-04-03T10:50:26;103014.16;;;6.67;100.00
1736;BME280;865;53.672;10.250;2023-04-03T10:53:14;103013.75;;;6.54;100.00
1736;BME280;865;53.672;10.250;2023-04-03T10:55:52;103010.69;;;6.41;100.00
1736;BME280;865;53.672;10.250;2023-04-03T10:58:26;103015.69;;;6.36;100.00
1736;BME280;865;53.672;10.250;2023-04-03T11:00:59;103011.44;;;5.66;100.00
1736;BME280;865;53.672;10.250;2023-04-03T11:03:34;103013.09;;;5.64;100.00
1736;BME280;865;53.672;10.250;2023-04-03T11:06:05;103001.63;;;5.57;100.00
1736;BME280;865;53.672;10.250;2023-04-03T11:11:08;102997.97;;;5.52;100.00
1736;BME280;865;53.672;10.250;2023-04-03T11:13:50;102992.22;;;5.59;100.00
1736;BME280;865;53.672;10.250;2023-04-03T11:16:27;102988.97;;;5.89;100.00
1736;BME280;865;53.672;10.250;2023-04-03T11:19:13;102986.50;;;5.92;100.00
1736;BME280;865;53.672;10.250;2023-04-03T11:21:52;102984.81;;;5.70;100.00
1736;BME280;865;53.672;10.250;2023-04-03T11:24:29;102988.84;;;5.17;100.00
1736;BME280;865;53.672;10.250;2023-04-03T11:27:00;102990.59;;;4.95;100.00
1736;BME280;865;53.672;10.250;2023-04-03T11:29:36;102983.84;;;4.99;100.00
1736;BME280;865;53.672;10.250;2023-04-03T11:32:10;102982.97;;;4.98;100.00
1736;BME280;865;53.672;10.250;2023-04-03T11:34:41;102984.63;;;5.19;100.00
1736;BME280;865;53.672;10.250;2023-04-03T11:39:57;102976.72;;;5.38;100.00
1736;BME280;865;53.672;10.250;2023-04-03T11:47:58;102975.69;;;5.11;100.00
1736;BME280;865;53.672;10.250;2023-04-03T12:00:51;102956.19;;;6.13;100.00
1736;BME280;865;53.672;10.250;2023-04-03T12:08:50;102960.41;;;6.10;73.67
1736;BME280;865;53.672;10.250;2023-04-03T12:11:39;102955.44;;;6.18;91.15
1736;BME280;865;53.672;10.250;2023-04-03T12:14:14;102955.41;;;6.42;93.17
1736;BME280;865;53.672;10.250;2023-04-03T12:34:56;102945.22;;;6.75;92.32
1736;BME280;865;53.672;10.250;2023-04-03T12:37:50;102934.91;;;6.76;76.83
1736;BME280;865;53.672;10.250;2023-04-03T12:46:02;102936.91;;;5.81;88.24
1736;BME280;865;53.672;10.250;2023-04-03T12:48:48;102931.66;;;5.80;91.84
1736;BME280;865;53.672;10.250;2023-04-03T12:51:20;102934.13;;;6.01;91.90
1736;BME280;865;53.672;10.250;2023-04-03T12:53:49;102933.75;;;6.14;86.90
1736;BME280;865;53.672;10.250;2023-04-03T12:56:24;102923.88;;;6.04;90.80
1736;BME280;865;53.672;10.250;2023-04-03T12:58:52;102930.47;;;6.20;92.03
1736;BME280;865;53.672;10.250;2023-04-03T13:01:24;102933.88;;;5.93;89.91
1736;BME280;865;53.672;10.250;2023-04-03T13:03:57;102938.53;;;6.03;91.36
1736;BME280;865;53.672;10.250;2023-04-03T13:06:27;102932.41;;;6.25;88.10
1736;BME280;865;53.672;10.250;2023-04-03T13:08:58;102925.75;;;6.08;72.62
1736;BME280;865;53.672;10.250;2023-04-03T13:11:34;102928.03;;;6.24;84.72
1736;BME280;865;53.672;10.250;2023-04-03T13:14:15;102930.38;;;6.16;74.86
1736;BME280;865;53.672;10.250;2023-04-03T13:16:52;102924.53;;;6.22;79.24
1736;BME280;865;53.672;10.250;2023-04-03T13:19:19;102928.41;;;6.35;75.42
1736;BME280;865;53.672;10.250;2023-04-03T13:21:46;102916.19;;;6.31;71.06
1736;BME280;865;53.672;10.250;2023-04-03T13:24:13;102918.13;;;6.38;80.01
1736;BME280;865;53.672;10.250;2023-04-03T13:26:42;102911.22;;;6.38;76.02
1736;BME280;865;53.672;10.250;2023-04-03T13:29:28;102911.13;;;6.35;78.50
1736;BME280;865;53.672;10.250;2023-04-03T13:31:59;102910.53;;;6.17;73.96
1736;BME280;865;53.672;10.250;2023-04-03T13:34:30;102910.91;;;6.28;77.77
1736;BME280;865;53.672;10.250;2023-04-03T13:37:02;102911.31;;;6.42;92.20
1736;BME280;865;53.672;10.250;2023-04-03T13:39:39;102921.41;;;6.59;73.61
1736;BME280;865;53.672;10.250;2023-04-03T13:42:26;102915.59;;;6.39;68.48
1736;BME280;865;53.672;10.250;2023-04-03T13:45:11;102907.66;;;6.35;80.85
1736;BME280;865;53.672;10.250;2023-04-03T13:47:44;102907.66;;;6.35;75.34
1736;BME280;865;53.672;10.250;2023-04-03T13:52:47;102903.03;;;6.52;82.56
1736;BME280;865;53.672;10.250;2023-04-03T13:55:33;102892.47;;;6.46;74.08
1736;BME280;865;53.672;10.250;2023-04-03T14:06:12;102889.03;;;6.47;85.23
1736;BME280;865;53.672;10.250;2023-04-03T14:08:38;102884.34;;;6.35;78.26
1736;BME280;865;53.672;10.250;2023-04-03T14:11:20;102875.03;;;6.42;86.24
1736;BME280;865;53.672;10.250;2023-04-03T14:13:48;102881.44;;;6.53;86.20
1736;BME280;865;53.672;10.250;2023-04-03T14:16:22;102880.75;;;6.58;87.94
1736;BME280;865;53.672;10.250;2023-04-03T14:18:49;102868.81;;;6.36;82.32
1736;BME280;865;53.672;10.250;2023-04-03T14:21:18;102880.59;;;6.27;96.00
1736;BME280;865;53.672;10.250;2023-04-03T14:23:46;102882.47;;;6.58;100.00
1736;BME280;865;53.672;10.250;2023-04-03T14:26:16;102879.03;;;6.59;93.91
1736;BME280;865;53.672;10.250;2023-04-03T14:28:50;102867.44;;;6.48;90.28
1736;BME280;865;53.672;10.250;2023-04-03T14:31:19;102881.50;;;6.54;97.79
1736;BME280;865;53.672;10.250;2023-04-03T14:33:46;102876.09;;;6.75;100.00
1736;BME280;865;53.672;10.250;2023-04-03T14:36:14;102871.44;;;6.65;99.61
1736;BME280;865;53.672;10.250;2023-04-03T14:38:43;102868.06;;;6.68;90.44
1736;BME280;865;53.672;10.250;2023-04-03T14:41:14;102863.03;;;6.72;93.24
1736;BME280;865;53.672;10.250;2023-04-03T14:43:44;102862.00;;;6.96;100.00
1736;BME280;865;53.672;10.250;2023-04-03T14:46:35;102868.28;;;7.04;97.80
1736;BME280;865;53.672;10.250;2023-04-03T14:49:22;102869.00;;;6.70;100.00
1736;BME280;865;53.672;10.250;2023-04-03T14:51:49;102878.16;;;6.04;100.00